Tropical Cyclones
[Index]
Main Index Home Page Stock Weather Photos Extreme Storms Discussion Storm News and Storm Chasing Reports Tropical Cyclones / Hurricanes / Typhoons Weather Data and Links Wild Fires / Bushfires Weather Observation Techniques Weather Picture Catalogue Tornado Pictures and Reports Stock Video Footage and DVDs for sale
Season 1995-1996 Tropical Cyclone DARYL-AGNIELLE Track Map
Season 1995-1996 Summaries: [BoM-AU] [JTWC-AU] [JTWC-SIO] [JTWC-SPAC] [JTWC-SH]
<<- Previous TC | JTWC 1995-1996 Season | Next TC ->>

click for intensity scale information  Lat/long Grid: Show Hide

 Date Labels: Show Hide

Joint Typhoon Warning Centre Cyclone Data

Name: DARYL-AGNIELLE

15 Nov 1995 00:00 UTC to 25 Nov 1995 12:00 UTC

    date/time    lat    long     hPa   cat  kts
1995-11-15 00    4.6    92.3                  20          
1995-11-15 06    4.8    92.8                  20          
1995-11-15 12    5.1    93.4                  20          
1995-11-15 18    5.4    94.1                  20          
1995-11-16 00    5.9    94.9                  20          
1995-11-16 06    6.8    95.6                  25          
1995-11-16 12    7.9    96.0                  30          
1995-11-16 18    8.8    96.4                  30          
1995-11-17 00    9.5    96.6                  30          
1995-11-17 06   10.0    96.8                  35          
1995-11-17 12   10.5    97.0            1     40          
1995-11-17 18   11.1    96.7            1     50          
1995-11-18 00   11.3    95.4            2     55          
1995-11-18 06   11.5    94.2            2     60          
1995-11-18 12   11.7    93.0            2     65          
1995-11-18 18   11.8    92.2            2     65          
1995-11-19 00   11.8    91.4            2     65          
1995-11-19 06   11.7    90.6            2     70          
1995-11-19 12   11.7    89.7            3     80          
1995-11-19 18   11.6    88.7            3     90          
1995-11-20 00   11.6    87.7            4    100          
1995-11-20 06   11.6    86.7            4    115          
1995-11-20 12   11.7    86.0            5    125          
1995-11-20 18   12.0    85.5            5    130          
1995-11-21 00   12.3    85.0            5    140          
1995-11-21 06   12.8    84.4            5    150          
1995-11-21 12   13.2    83.9            5    140          
1995-11-21 18   13.6    83.6            5    130          
1995-11-22 00   14.0    83.4            5    130          
1995-11-22 06   14.5    83.3            5    130          
1995-11-22 12   15.1    83.2            5    125          
1995-11-22 18   15.6    83.0            5    125          
1995-11-23 00   16.1    82.9            5    125          
1995-11-23 06   16.6    82.7            4    120          
1995-11-23 12   17.0    82.5            4    115          
1995-11-23 18   17.2    82.3            4    100          
1995-11-24 00   17.2    81.9            3     90          
1995-11-24 06   16.9    81.4            3     75          
1995-11-24 12   16.7    80.4            2     60          
1995-11-24 18   16.6    79.2            1     45          
1995-11-25 00   16.6    77.9                  35          
1995-11-25 06   16.8    76.5                  30          
1995-11-25 12   17.2    75.0                  25          
Winds are 1-min average.

Tropical cyclone tracks developed by Michael Bath using data from the Joint Typhoon Warning Centre Best Tracks and Google Maps.


[Australian Severe Weather index] [Copyright Notice] [Email Contacts] [Search This Site] [Privacy Policy]
Document: tropical_cyclone_daryl-agnielle.htm Updated: 18 September 2016